Time;durP1;ratioP1;P1;durP2;ratioP2;P2;SDS_P1;SDS_P2;PMS_P1;PMS_P2;Temp;Humidity;BMP_temperature;BMP_pressure;BME280_temperature;BME280_humidity;BME280_pressure;Samples;Min_cycle;Max_cycle;Signal;HPM_P1;HPM_P2
2024/03/10 00:00:20;;;;;;;19.95;11.35;;;;;;;4.95;68.84;99599.75;4983594;28;20065;-94
2024/03/10 00:02:47;;;;;;;20.08;11.40;;;;;;;4.93;69.64;99599.16;4954495;28;20045;-95
2024/03/10 00:05:14;;;;;;;21.80;12.35;;;;;;;4.78;69.72;99590.78;4952426;28;20042;-93
2024/03/10 00:07:41;;;;;;;19.17;11.88;;;;;;;4.87;69.42;99600.06;5000319;28;20507;-94
2024/03/10 00:10:09;;;;;;;24.77;11.77;;;;;;;4.88;69.22;99628.41;4951415;28;20038;-94
2024/03/10 00:12:36;;;;;;;19.80;12.45;;;;;;;4.66;69.61;99599.50;4984233;28;20097;-95
2024/03/10 00:15:04;;;;;;;23.17;13.02;;;;;;;4.64;69.60;99590.91;4984063;28;20113;-94
2024/03/10 00:17:30;;;;;;;23.00;12.38;;;;;;;4.63;69.64;99591.97;4967527;28;20515;-94
2024/03/10 00:19:56;;;;;;;23.45;12.05;;;;;;;4.73;69.59;99606.63;4952103;28;20038;-94
2024/03/10 00:22:22;;;;;;;21.10;12.88;;;;;;;4.59;69.57;99589.97;4967960;28;20046;-95
2024/03/10 00:24:49;;;;;;;22.00;11.18;;;;;;;4.77;69.65;99610.47;4952479;28;20046;-95
2024/03/10 00:27:17;;;;;;;28.85;13.07;;;;;;;4.63;69.59;99585.81;4969080;28;20034;-94
2024/03/10 00:29:43;;;;;;;20.52;11.30;;;;;;;4.54;70.25;99579.16;4967552;28;20030;-94
2024/03/10 00:32:09;;;;;;;20.88;11.73;;;;;;;4.53;69.69;99550.88;4968577;28;20059;-91
2024/03/10 00:34:35;;;;;;;22.20;11.65;;;;;;;4.52;69.54;99567.91;4951218;28;20029;-91
2024/03/10 00:37:02;;;;;;;21.63;11.40;;;;;;;4.57;70.10;99584.88;4950140;28;20623;-90
2024/03/10 00:39:28;;;;;;;18.48;11.50;;;;;;;4.59;69.85;99592.66;4950496;28;20151;-91
2024/03/10 00:41:53;;;;;;;19.38;11.02;;;;;;;4.53;70.09;99567.69;4949990;28;20047;-91
2024/03/10 00:44:19;;;;;;;16.13;10.30;;;;;;;4.48;69.85;99564.84;4933953;28;20047;-90
2024/03/10 00:46:47;;;;;;;20.08;10.65;;;;;;;4.51;69.20;99567.09;4937313;28;20050;-91
2024/03/10 00:49:14;;;;;;;19.10;10.93;;;;;;;4.51;69.59;99545.75;4978603;28;20042;-90
2024/03/10 00:51:42;;;;;;;16.52;10.45;;;;;;;4.59;69.33;99548.13;4966149;28;20068;-92
2024/03/10 00:54:10;;;;;;;19.92;9.95;;;;;;;4.66;69.52;99556.84;4949828;28;20030;-91
2024/03/10 00:56:35;;;;;;;22.20;11.23;;;;;;;4.71;69.77;99555.34;4962091;28;20038;-90
2024/03/10 00:59:01;;;;;;;19.25;11.63;;;;;;;4.63;69.57;99546.63;4977452;28;20041;-90
2024/03/10 01:01:29;;;;;;;21.30;11.15;;;;;;;4.77;69.46;99563.28;4974548;28;20045;-91
2024/03/10 01:03:56;;;;;;;22.83;11.45;;;;;;;4.78;69.91;99559.56;4976607;28;20049;-91
2024/03/10 01:06:25;;;;;;;17.38;10.73;;;;;;;4.69;69.84;99542.25;4965905;28;20026;-91
2024/03/10 01:08:53;;;;;;;19.35;11.45;;;;;;;4.73;69.51;99556.78;4965080;28;20129;-92
2024/03/10 01:11:20;;;;;;;20.67;9.88;;;;;;;4.72;69.71;99562.31;4977796;28;20114;-91
2024/03/10 01:13:46;;;;;;;16.08;10.32;;;;;;;4.58;70.04;99543.81;4951995;28;20062;-91
2024/03/10 01:16:14;;;;;;;19.50;10.50;;;;;;;4.63;69.89;99546.63;4962060;28;20430;-90
2024/03/10 01:18:39;;;;;;;18.08;11.43;;;;;;;4.67;70.41;99549.69;4978324;28;20047;-91
2024/03/10 01:21:07;;;;;;;18.77;11.23;;;;;;;4.55;70.18;99528.28;4946391;28;20054;-91
2024/03/10 01:23:33;;;;;;;17.25;10.57;;;;;;;4.60;69.78;99544.41;4978041;28;20127;-91
2024/03/10 01:26:00;;;;;;;21.38;11.05;;;;;;;4.55;70.16;99546.13;4946602;28;20058;-91
2024/03/10 01:28:26;;;;;;;20.38;11.85;;;;;;;4.52;69.87;99543.91;4946109;28;20038;-90
2024/03/10 01:30:52;;;;;;;18.02;10.65;;;;;;;4.54;70.06;99549.81;4932826;28;20135;-91
2024/03/10 01:33:18;;;;;;;23.08;10.80;;;;;;;4.43;69.50;99535.41;4956514;28;20046;-91
2024/03/10 01:35:46;;;;;;;22.20;11.77;;;;;;;4.36;70.45;99550.69;4959787;28;20114;-91
2024/03/10 01:38:12;;;;;;;21.83;11.77;;;;;;;4.22;70.46;99534.00;4950024;28;20038;-90
2024/03/10 01:40:39;;;;;;;19.52;12.00;;;;;;;4.22;70.32;99542.81;4966246;28;20053;-90
2024/03/10 01:43:05;;;;;;;21.90;11.38;;;;;;;4.36;70.21;99548.81;4964122;28;20034;-91
2024/03/10 01:45:32;;;;;;;22.75;11.50;;;;;;;4.39;70.59;99555.53;4965869;28;20027;-91
2024/03/10 01:48:01;;;;;;;19.73;11.05;;;;;;;4.35;70.42;99554.38;4981315;28;20125;-91
2024/03/10 01:50:31;;;;;;;16.08;10.73;;;;;;;4.22;70.71;99528.69;4997379;28;20030;-92
2024/03/10 01:52:56;;;;;;;21.33;11.63;;;;;;;4.23;70.36;99543.63;4980563;28;20101;-91
2024/03/10 01:55:22;;;;;;;19.92;11.15;;;;;;;4.28;70.93;99559.78;4949058;28;20050;-91
2024/03/10 01:57:48;;;;;;;20.23;11.45;;;;;;;4.25;69.99;99546.88;4952520;28;20421;-92
2024/03/10 02:00:14;;;;;;;19.73;11.05;;;;;;;4.20;70.31;99520.09;4965444;28;20117;-91
2024/03/10 02:02:43;;;;;;;18.70;10.77;;;;;;;4.33;70.53;99556.44;4979993;28;20046;-91
2024/03/10 02:05:09;;;;;;;19.90;10.85;;;;;;;4.18;70.97;99546.97;4965244;28;20045;-90
2024/03/10 02:07:35;;;;;;;19.95;12.15;;;;;;;4.09;70.75;99528.81;4964589;28;20042;-90
2024/03/10 02:10:06;;;;;;;18.45;11.38;;;;;;;4.14;70.49;99544.97;4964314;28;20430;-91
2024/03/10 02:12:33;;;;;;;18.17;10.65;;;;;;;4.01;71.33;99528.09;4978494;28;20138;-91
2024/03/10 02:15:06;;;;;;;18.85;11.85;;;;;;;4.12;71.03;99533.72;4967959;28;20045;-91
2024/03/10 02:17:36;;;;;;;21.63;11.82;;;;;;;4.14;70.68;99531.66;4989203;28;20042;-91
2024/03/10 02:20:14;;;;;;;19.70;12.32;;;;;;;4.14;70.46;99524.47;4954222;28;20043;-92
2024/03/10 02:22:41;;;;;;;18.58;11.07;;;;;;;4.41;70.93;99548.13;4963237;28;20046;-93
2024/03/10 02:25:09;;;;;;;24.25;11.77;;;;;;;4.28;70.89;99527.78;4945471;28;20445;-92
2024/03/10 02:27:42;;;;;;;20.85;12.73;;;;;;;4.40;70.46;99531.34;4977778;28;20038;-91
2024/03/10 02:49:32;;;;;;;21.02;12.30;;;;;;;4.50;71.15;99533.44;4943065;29;20062;-91
2024/03/10 02:52:00;;;;;;;22.65;13.02;;;;;;;4.57;70.89;99544.88;4921635;28;20070;-91
2024/03/10 02:54:26;;;;;;;22.10;12.90;;;;;;;4.49;70.45;99534.50;4961097;28;20049;-92
2024/03/10 02:56:51;;;;;;;19.20;12.05;;;;;;;4.54;71.05;99531.16;4960595;28;20027;-91
2024/03/10 02:59:17;;;;;;;26.88;13.85;;;;;;;4.48;71.20;99538.19;4944992;28;20039;-91
2024/03/10 03:01:42;;;;;;;18.85;11.20;;;;;;;4.52;71.04;99549.22;4969604;28;20089;-91
2024/03/10 03:04:08;;;;;;;19.55;11.45;;;;;;;4.38;71.12;99541.41;4974113;28;20141;-91
2024/03/10 03:06:33;;;;;;;17.33;11.30;;;;;;;4.24;70.17;99526.63;4964449;28;20041;-91
2024/03/10 03:08:59;;;;;;;15.45;10.98;;;;;;;4.26;70.46;99532.53;4951176;28;20042;-91
2024/03/10 03:11:26;;;;;;;16.95;10.90;;;;;;;4.09;70.66;99520.81;4954085;28;20084;-90
2024/03/10 03:13:52;;;;;;;21.60;10.60;;;;;;;4.08;69.91;99522.69;4970756;28;20089;-91
2024/03/10 03:16:18;;;;;;;16.10;10.35;;;;;;;4.01;70.83;99530.75;4967533;28;20538;-91
2024/03/10 03:18:45;;;;;;;15.43;10.40;;;;;;;3.93;70.88;99535.56;4961784;28;20046;-91
2024/03/10 03:21:11;;;;;;;18.13;10.93;;;;;;;3.89;71.13;99527.19;4972081;28;20062;-91
2024/03/10 03:23:37;;;;;;;16.02;10.10;;;;;;;3.92;70.38;99512.63;4979555;28;20047;-91
2024/03/10 03:26:04;;;;;;;19.77;10.93;;;;;;;3.92;71.06;99520.59;4960819;28;20111;-91
2024/03/10 03:28:31;;;;;;;16.05;10.15;;;;;;;4.05;70.34;99533.78;4959663;28;20057;-92
2024/03/10 03:30:56;;;;;;;16.27;10.00;;;;;;;4.08;70.73;99521.88;4946506;28;20097;-92
2024/03/10 03:33:23;;;;;;;18.38;10.70;;;;;;;4.15;70.87;99526.09;4948288;28;20042;-92
2024/03/10 03:35:48;;;;;;;19.00;11.80;;;;;;;4.18;71.00;99530.97;4962517;28;20054;-91
2024/03/10 03:38:14;;;;;;;17.00;10.93;;;;;;;4.15;71.28;99520.78;4950746;28;20038;-92
2024/03/10 03:40:40;;;;;;;16.60;10.90;;;;;;;4.17;70.93;99513.38;4947286;28;20077;-91
2024/03/10 03:43:06;;;;;;;17.52;11.50;;;;;;;4.27;70.73;99501.34;4963558;28;20386;-92
2024/03/10 03:45:34;;;;;;;18.15;10.55;;;;;;;4.24;71.45;99489.31;4963891;28;20046;-90
2024/03/10 03:48:04;;;;;;;18.63;11.15;;;;;;;4.41;71.20;99511.63;4947778;28;20053;-92
2024/03/10 03:50:31;;;;;;;20.23;11.10;;;;;;;4.56;71.07;99531.75;4948959;28;20034;-92
2024/03/10 03:52:58;;;;;;;16.90;10.85;;;;;;;4.57;71.10;99520.06;4951742;28;20560;-90
2024/03/10 03:55:24;;;;;;;17.70;10.65;;;;;;;4.53;70.53;99493.03;4982749;28;20042;-91
2024/03/10 03:57:50;;;;;;;16.98;10.18;;;;;;;4.69;71.05;99520.94;4980276;28;20408;-92
2024/03/10 04:00:17;;;;;;;16.98;11.40;;;;;;;4.67;70.34;99515.00;4963565;28;20045;-91
2024/03/10 04:02:46;;;;;;;23.90;11.75;;;;;;;4.67;70.70;99515.00;4934221;28;20039;-91
2024/03/10 04:05:12;;;;;;;15.65;11.05;;;;;;;4.57;70.10;99491.53;4968357;28;20035;-91
2024/03/10 04:07:41;;;;;;;16.50;10.85;;;;;;;4.50;70.28;99496.13;4980329;28;20048;-92
2024/03/10 04:10:09;;;;;;;17.15;10.30;;;;;;;4.48;70.46;99500.88;4966663;28;20035;-92
2024/03/10 04:12:36;;;;;;;17.05;10.55;;;;;;;4.49;70.13;99510.50;4961282;28;20046;-93
2024/03/10 04:15:03;;;;;;;15.27;10.23;;;;;;;4.50;70.09;99501.47;4946433;28;20050;-91
2024/03/10 04:17:28;;;;;;;16.60;10.40;;;;;;;4.46;70.41;99505.63;4930784;28;20043;-92
2024/03/10 04:19:56;;;;;;;16.55;10.55;;;;;;;4.39;70.19;99508.38;4963880;28;20105;-92
2024/03/10 04:22:22;;;;;;;16.95;10.63;;;;;;;4.48;70.26;99526.72;4961504;28;20066;-92
2024/03/10 04:24:49;;;;;;;19.40;10.75;;;;;;;4.49;70.59;99525.69;4979641;28;20043;-92
2024/03/10 04:27:15;;;;;;;17.08;10.70;;;;;;;4.60;69.68;99528.41;4962590;28;20030;-92
2024/03/10 04:29:42;;;;;;;17.13;10.55;;;;;;;4.64;70.01;99518.09;4979598;28;20035;-92
2024/03/10 04:32:10;;;;;;;17.83;9.95;;;;;;;4.57;70.20;99499.53;4948006;28;20050;-91
2024/03/10 04:34:36;;;;;;;17.45;10.63;;;;;;;4.77;69.01;99525.94;4961375;28;20065;-92
2024/03/10 04:37:02;;;;;;;18.05;10.93;;;;;;;4.57;70.38;99502.19;4963099;28;20053;-92
2024/03/10 04:39:27;;;;;;;18.08;11.27;;;;;;;4.62;70.38;99538.84;4948213;28;20032;-92
2024/03/10 04:41:56;;;;;;;17.98;10.18;;;;;;;4.34;70.20;99492.25;4946504;28;20490;-92
2024/03/10 04:44:22;;;;;;;19.23;10.60;;;;;;;4.51;70.45;99520.97;4978890;28;20061;-92
2024/03/10 04:46:48;;;;;;;20.17;10.85;;;;;;;4.49;70.49;99520.38;4955765;28;20041;-92
2024/03/10 04:49:17;;;;;;;16.13;10.55;;;;;;;4.52;69.81;99519.91;4962572;28;20027;-93
2024/03/10 04:51:43;;;;;;;18.88;11.52;;;;;;;4.58;70.83;99529.66;4963866;28;20486;-92
2024/03/10 04:54:10;;;;;;;19.00;10.05;;;;;;;4.71;69.63;99531.34;4959083;28;20035;-91
2024/03/10 04:56:36;;;;;;;15.88;10.15;;;;;;;4.81;70.22;99529.75;4950872;28;20049;-92
2024/03/10 04:59:03;;;;;;;22.67;10.48;;;;;;;4.71;70.78;99532.19;4954061;28;20045;-89
2024/03/10 05:01:29;;;;;;;17.15;10.13;;;;;;;4.81;70.41;99536.94;4971776;28;20045;-92
2024/03/10 05:03:55;;;;;;;18.27;10.73;;;;;;;4.83;69.79;99537.53;4971422;28;20049;-91
2024/03/10 05:06:20;;;;;;;18.95;11.05;;;;;;;4.92;69.92;99525.53;4963237;28;20031;-90
2024/03/10 05:08:46;;;;;;;20.95;10.50;;;;;;;4.93;70.11;99534.34;4969011;28;20560;-91
2024/03/10 05:11:15;;;;;;;16.52;10.25;;;;;;;4.91;69.56;99525.75;4955444;28;20034;-92
2024/03/10 05:13:43;;;;;;;18.10;10.38;;;;;;;4.96;69.86;99533.88;4961256;28;20049;-92
2024/03/10 05:16:11;;;;;;;18.05;10.73;;;;;;;5.09;69.48;99531.00;4973949;28;20104;-92
2024/03/10 05:18:40;;;;;;;21.95;10.18;;;;;;;5.11;69.46;99534.28;4966227;28;20089;-92
2024/03/10 05:21:06;;;;;;;17.23;10.02;;;;;;;5.27;69.60;99543.44;4949366;28;20092;-92
2024/03/10 05:23:33;;;;;;;18.33;10.48;;;;;;;5.37;69.27;99540.22;4966500;28;20042;-91
2024/03/10 05:26:02;;;;;;;15.95;9.77;;;;;;;5.37;68.02;99516.19;4978356;28;20095;-92
2024/03/10 05:28:27;;;;;;;24.15;11.20;;;;;;;5.37;69.18;99522.34;4967121;28;20104;-91
2024/03/10 05:30:54;;;;;;;21.73;12.15;;;;;;;5.58;68.82;99538.84;4949944;28;20030;-92
2024/03/10 05:33:20;;;;;;;24.65;12.27;;;;;;;5.50;68.45;99525.84;4981110;28;20034;-92
2024/03/10 05:35:49;;;;;;;19.08;11.90;;;;;;;5.49;68.93;99525.03;4966082;28;20038;-92
2024/03/10 05:38:15;;;;;;;25.60;12.75;;;;;;;5.55;69.15;99531.31;4982575;28;20021;-92
2024/03/10 05:40:42;;;;;;;42.63;20.77;;;;;;;5.68;68.50;99541.75;4948641;28;20038;-92
2024/03/10 05:43:08;;;;;;;40.67;22.40;;;;;;;5.66;69.07;99536.69;4966362;28;20039;-91
2024/03/10 05:45:34;;;;;;;38.10;17.55;;;;;;;5.76;67.78;99552.09;4950884;28;20035;-91
2024/03/10 05:48:02;;;;;;;30.15;16.92;;;;;;;5.72;68.02;99547.47;4982510;28;20030;-91
2024/03/10 05:50:29;;;;;;;32.40;15.95;;;;;;;5.75;68.29;99553.16;4997606;28;20097;-92
2024/03/10 05:52:56;;;;;;;28.67;15.90;;;;;;;5.83;68.58;99550.16;4966015;28;20054;-91
2024/03/10 05:55:21;;;;;;;30.48;16.90;;;;;;;5.81;68.38;99538.88;4981566;28;20042;-91
2024/03/10 05:57:48;;;;;;;45.15;24.02;;;;;;;5.85;67.94;99540.03;4949834;28;20045;-91
2024/03/10 06:00:16;;;;;;;22.65;15.13;;;;;;;5.95;67.82;99530.63;4980750;28;20080;-91
2024/03/10 06:02:44;;;;;;;19.90;13.13;;;;;;;6.19;66.46;99548.28;4950699;28;20042;-91
2024/03/10 06:05:12;;;;;;;24.45;13.75;;;;;;;6.42;65.30;99554.63;4999092;28;20420;-91
2024/03/10 06:07:39;;;;;;;25.30;14.55;;;;;;;6.57;65.71;99562.94;4979150;28;20041;-91
2024/03/10 06:10:06;;;;;;;25.80;14.15;;;;;;;6.55;65.57;99549.00;4965446;28;20034;-90
2024/03/10 06:12:35;;;;;;;21.45;13.85;;;;;;;6.76;66.10;99568.13;4962375;28;20035;-92
2024/03/10 06:15:01;;;;;;;23.83;14.15;;;;;;;6.77;65.55;99543.81;4957775;28;20046;-92
2024/03/10 06:17:33;;;;;;;24.85;14.80;;;;;;;7.06;65.51;99566.00;4971480;28;20030;-91
2024/03/10 06:25:29;;;;;;;20.90;13.63;;;;;;;7.10;65.36;99555.66;4967801;28;20749;-91
2024/03/10 06:27:56;;;;;;;23.00;13.43;;;;;;;7.12;65.51;99556.22;4949318;28;20084;-93
2024/03/10 06:30:22;;;;;;;25.45;12.90;;;;;;;7.21;65.43;99557.44;4980127;28;20026;-92
2024/03/10 06:32:50;;;;;;;20.60;12.18;;;;;;;7.31;65.22;99561.34;4964913;28;20034;-94
2024/03/10 06:35:21;;;;;;;22.00;12.32;;;;;;;7.52;65.06;99586.63;4980383;28;20106;-91
2024/03/10 06:37:48;;;;;;;21.52;13.23;;;;;;;7.64;64.96;99576.63;4996795;28;20039;-92
2024/03/10 06:40:14;;;;;;;23.17;13.25;;;;;;;7.70;64.92;99572.97;4980906;28;20044;-93
2024/03/10 06:42:40;;;;;;;23.98;12.38;;;;;;;7.93;64.62;99577.34;4965878;28;20113;-93
2024/03/10 06:45:08;;;;;;;23.10;12.50;;;;;;;7.96;64.01;99571.47;4949654;28;20129;-90
2024/03/10 06:47:34;;;;;;;21.30;12.10;;;;;;;7.91;64.20;99566.03;4950583;28;20038;-92
2024/03/10 06:50:00;;;;;;;23.88;12.55;;;;;;;7.93;63.43;99565.78;4966504;28;20028;-91
2024/03/10 06:52:25;;;;;;;21.23;12.93;;;;;;;7.93;63.43;99560.41;4965407;28;20049;-92
2024/03/10 06:54:52;;;;;;;21.52;12.73;;;;;;;8.22;62.78;99572.66;4966263;28;20031;-92
2024/03/10 06:57:19;;;;;;;26.42;14.00;;;;;;;8.30;62.48;99566.84;4964004;28;20034;-92
2024/03/10 06:59:45;;;;;;;22.80;14.05;;;;;;;8.56;62.25;99591.34;4950043;28;20043;-92
2024/03/10 07:02:14;;;;;;;25.10;13.85;;;;;;;8.69;61.29;99579.41;4992055;28;20058;-92
2024/03/10 07:04:44;;;;;;;24.35;13.15;;;;;;;8.77;61.17;99562.06;4948335;28;20034;-92
2024/03/10 07:07:09;;;;;;;29.02;14.60;;;;;;;8.87;61.46;99557.59;4968530;28;20098;-93
2024/03/10 07:09:35;;;;;;;26.65;13.85;;;;;;;9.05;61.23;99564.50;4946828;28;20063;-93
2024/03/10 07:12:04;;;;;;;38.97;13.48;;;;;;;9.16;60.97;99561.94;4959118;28;20038;-93
2024/03/10 07:14:30;;;;;;;25.73;13.05;;;;;;;9.35;59.79;99562.38;4951644;28;20612;-92
2024/03/10 07:16:57;;;;;;;18.98;10.85;;;;;;;9.51;59.22;99564.13;4960381;28;20043;-93
2024/03/10 07:19:26;;;;;;;18.67;11.98;;;;;;;9.53;59.90;99545.06;4930340;28;20085;-95
2024/03/10 07:21:53;;;;;;;21.60;13.90;;;;;;;9.71;60.16;99569.66;4951455;28;20057;-96
2024/03/10 07:24:19;;;;;;;19.25;12.50;;;;;;;9.69;59.24;99566.41;4948762;28;20053;-94
2024/03/10 07:26:47;;;;;;;18.55;12.63;;;;;;;9.83;59.40;99569.44;4964709;28;20039;-95
2024/03/10 07:29:14;;;;;;;26.92;15.10;;;;;;;9.86;58.95;99574.31;4946625;28;20062;-95
2024/03/10 07:31:40;;;;;;;25.15;13.02;;;;;;;9.93;58.73;99574.09;4963135;28;20047;-94
2024/03/10 07:34:07;;;;;;;24.65;13.68;;;;;;;10.05;57.77;99574.72;4962878;28;20099;-92
2024/03/10 07:36:32;;;;;;;20.02;13.05;;;;;;;10.12;58.08;99569.91;4929537;28;20524;-92
2024/03/10 07:39:00;;;;;;;18.98;11.52;;;;;;;10.41;57.21;99598.34;4961628;28;20162;-91
2024/03/10 07:41:27;;;;;;;21.75;11.63;;;;;;;10.47;56.64;99591.91;4946337;28;20067;-91
2024/03/10 07:43:54;;;;;;;14.15;10.23;;;;;;;10.58;55.75;99593.56;4969461;28;20062;-91
2024/03/10 07:46:19;;;;;;;14.27;8.35;;;;;;;10.55;54.75;99572.56;4974515;28;20473;-92
2024/03/10 07:48:45;;;;;;;13.85;8.60;;;;;;;10.69;53.88;99576.41;4936770;28;20041;-93
2024/03/10 07:51:14;;;;;;;15.25;7.68;;;;;;;10.77;54.06;99583.16;4981251;28;20034;-91
2024/03/10 07:53:41;;;;;;;15.75;7.95;;;;;;;10.95;52.17;99592.63;4949970;28;20128;-93
2024/03/10 07:56:10;;;;;;;14.02;7.82;;;;;;;11.02;52.18;99592.38;4972217;28;20034;-96
2024/03/10 07:58:37;;;;;;;11.82;7.30;;;;;;;11.24;51.82;99608.31;4947509;28;20038;-92
2024/03/10 08:01:03;;;;;;;11.10;7.93;;;;;;;11.29;51.28;99606.47;4997106;28;20089;-93
2024/03/10 08:03:30;;;;;;;14.75;8.05;;;;;;;11.32;51.51;99578.16;4964982;28;20030;-92
2024/03/10 08:08:52;;;;;;;14.25;7.82;;;;;;;11.39;51.22;99575.97;5142275;23;20054;-92
2024/03/10 08:11:18;;;;;;;14.02;7.97;;;;;;;11.39;50.46;99591.34;4980391;28;20042;-95
2024/03/10 08:13:45;;;;;;;13.25;7.70;;;;;;;11.40;50.68;99574.13;4947520;28;20109;-94
2024/03/10 08:16:11;;;;;;;11.65;7.95;;;;;;;11.45;50.15;99574.09;4983096;28;20480;-93
2024/03/10 08:18:36;;;;;;;15.73;7.93;;;;;;;11.77;50.22;99608.91;4967921;28;20102;-93
2024/03/10 08:21:02;;;;;;;11.20;7.57;;;;;;;11.81;49.88;99590.31;4952285;28;20066;-93
2024/03/10 08:23:27;;;;;;;11.00;7.38;;;;;;;11.90;50.13;99592.19;4967908;28;20031;-93
2024/03/10 08:25:53;;;;;;;13.35;7.95;;;;;;;12.03;50.13;99590.03;4982452;28;20030;-92
2024/03/10 08:28:19;;;;;;;12.02;7.88;;;;;;;12.32;49.83;99611.81;4967876;28;20393;-93
2024/03/10 08:30:45;;;;;;;11.32;7.22;;;;;;;12.21;49.03;99591.34;4951450;28;20057;-93
2024/03/10 08:33:11;;;;;;;16.00;8.23;;;;;;;12.57;48.60;99616.34;4983843;28;20038;-94
2024/03/10 08:35:37;;;;;;;12.43;8.07;;;;;;;12.64;48.21;99589.84;4967418;28;20077;-93
2024/03/10 08:38:05;;;;;;;13.48;8.63;;;;;;;12.83;48.55;99595.44;4968020;28;20042;-91
2024/03/10 08:40:35;;;;;;;13.73;7.57;;;;;;;12.76;49.15;99591.41;4988146;28;20133;-94
2024/03/10 08:43:00;;;;;;;19.13;8.50;;;;;;;12.83;48.23;99576.53;4985520;28;20038;-92
2024/03/10 08:45:32;;;;;;;8.60;6.82;;;;;;;12.99;47.70;99576.44;4983707;28;20069;-94
2024/03/10 08:47:57;;;;;;;14.27;8.68;;;;;;;13.18;46.89;99581.97;4967242;28;20049;-93
2024/03/10 08:50:23;;;;;;;12.52;7.50;;;;;;;13.38;47.37;99583.78;4966265;28;20034;-94
2024/03/10 08:52:49;;;;;;;12.80;7.55;;;;;;;13.38;47.30;99587.28;4982639;28;20066;-92
2024/03/10 08:55:15;;;;;;;12.70;6.85;;;;;;;13.48;46.90;99592.63;4985623;28;20042;-92
2024/03/10 08:57:41;;;;;;;11.55;6.57;;;;;;;13.61;45.99;99596.56;4984390;28;20038;-94
2024/03/10 09:00:10;;;;;;;10.63;7.70;;;;;;;13.54;46.05;99571.75;4966452;28;20129;-94
2024/03/10 09:02:36;;;;;;;11.75;7.03;;;;;;;13.65;46.09;99564.34;4982732;28;20084;-93
2024/03/10 09:05:03;;;;;;;13.48;7.72;;;;;;;13.67;45.70;99554.06;4982471;28;20049;-92
2024/03/10 09:07:28;;;;;;;13.25;8.07;;;;;;;13.86;45.36;99573.09;4967274;28;20061;-92
2024/03/10 09:09:54;;;;;;;11.10;7.65;;;;;;;14.00;45.66;99582.16;4982195;28;20049;-92
2024/03/10 09:12:20;;;;;;;11.88;7.63;;;;;;;13.93;45.65;99558.13;4966448;28;20045;-91
2024/03/10 09:14:46;;;;;;;12.55;8.00;;;;;;;13.93;46.02;99543.81;4983255;28;20121;-93
2024/03/10 09:17:11;;;;;;;14.38;7.22;;;;;;;13.89;45.60;99546.28;4982461;28;20038;-92
2024/03/10 09:19:37;;;;;;;12.38;7.80;;;;;;;14.09;45.35;99549.84;4948166;28;20043;-93
2024/03/10 09:22:04;;;;;;;13.00;7.75;;;;;;;13.97;45.71;99542.16;4949597;28;20040;-93
2024/03/10 09:24:29;;;;;;;11.73;6.90;;;;;;;14.28;45.14;99566.19;4950072;28;20046;-93
2024/03/10 09:26:56;;;;;;;11.43;7.38;;;;;;;14.27;45.53;99548.31;4982953;28;20467;-93
2024/03/10 09:29:27;;;;;;;10.35;6.28;;;;;;;14.37;44.13;99540.06;4950154;28;20041;-90
2024/03/10 09:31:55;;;;;;;16.40;6.57;;;;;;;14.52;44.61;99553.41;4966942;28;20066;-92
2024/03/10 09:34:24;;;;;;;10.32;6.18;;;;;;;14.60;43.96;99543.06;4983163;28;20034;-94
2024/03/10 09:36:50;;;;;;;10.25;6.10;;;;;;;14.70;44.03;99548.34;4982204;28;20034;-93
2024/03/10 09:39:16;;;;;;;10.38;6.50;;;;;;;14.50;44.36;99542.06;4965073;28;20507;-92
2024/03/10 09:41:42;;;;;;;10.85;6.13;;;;;;;14.61;44.23;99526.53;4982496;28;20030;-91
2024/03/10 09:44:13;;;;;;;11.75;5.95;;;;;;;14.65;44.20;99526.72;4966619;28;20038;-93
2024/03/10 09:46:43;;;;;;;12.25;6.32;;;;;;;14.60;43.57;99518.69;4969290;28;20026;-93
2024/03/10 09:49:10;;;;;;;10.05;6.50;;;;;;;14.63;43.42;99510.78;4968160;28;20428;-92
2024/03/10 09:51:38;;;;;;;10.15;5.45;;;;;;;14.49;43.84;99502.53;4964744;28;20049;-92
2024/03/10 09:54:05;;;;;;;8.23;5.88;;;;;;;14.45;43.32;99506.13;4968081;28;20032;-91
2024/03/10 09:56:30;;;;;;;9.52;5.95;;;;;;;14.75;43.00;99507.63;4984814;28;20102;-93
2024/03/10 09:59:00;;;;;;;11.55;6.40;;;;;;;14.93;43.33;99506.81;4983872;28;20037;-94
2024/03/10 10:01:25;;;;;;;8.15;5.57;;;;;;;14.95;42.78;99501.91;4968326;28;20030;-93
2024/03/10 10:03:55;;;;;;;10.45;5.90;;;;;;;15.07;42.65;99503.38;4985995;28;20113;-93
2024/03/10 10:06:25;;;;;;;9.23;5.70;;;;;;;15.30;42.58;99510.59;4971168;28;20034;-93
2024/03/10 10:08:54;;;;;;;7.32;5.30;;;;;;;15.44;41.20;99505.22;4983795;28;20073;-93
2024/03/10 10:11:23;;;;;;;7.50;5.50;;;;;;;15.54;40.95;99490.66;4983244;28;20023;-92
2024/03/10 10:14:16;;;;;;;8.57;5.72;;;;;;;15.90;40.20;99509.84;4965882;28;20121;-93
2024/03/10 10:16:55;;;;;;;8.73;4.53;;;;;;;15.90;39.11;99493.56;4982425;28;20066;-93
2024/03/10 10:19:21;;;;;;;6.68;4.80;;;;;;;15.94;39.42;99494.56;4980223;28;20412;-93
2024/03/10 10:21:47;;;;;;;8.80;4.10;;;;;;;15.43;38.64;99490.03;4950922;28;20041;-92
2024/03/10 10:24:13;;;;;;;5.75;4.32;;;;;;;15.50;38.49;99473.34;4953630;28;20034;-93
2024/03/10 10:26:40;;;;;;;6.05;4.20;;;;;;;15.43;39.23;99473.75;4957228;28;20038;-93
2024/03/10 10:29:07;;;;;;;9.05;4.22;;;;;;;15.60;39.15;99485.94;4962505;28;20035;-92
2024/03/10 10:31:44;;;;;;;10.55;3.92;;;;;;;15.63;38.96;99477.22;4978727;28;20058;-93
2024/03/10 10:34:13;;;;;;;7.53;3.70;;;;;;;15.51;38.95;99456.78;4953695;28;20030;-93
2024/03/10 10:36:39;;;;;;;5.82;3.78;;;;;;;15.61;38.21;99463.13;4981712;28;20030;-93
2024/03/10 10:39:08;;;;;;;32.80;5.22;;;;;;;15.88;38.38;99476.75;4979062;28;20070;-94
2024/03/10 10:41:51;;;;;;;7.32;3.38;;;;;;;15.89;37.51;99451.19;4936872;28;20030;-93
2024/03/10 10:44:18;;;;;;;10.20;3.35;;;;;;;15.90;37.63;99458.25;4966016;28;20046;-93
2024/03/10 10:46:44;;;;;;;4.38;3.40;;;;;;;15.84;37.13;99459.47;4945487;28;20038;-91
2024/03/10 10:49:11;;;;;;;4.95;3.15;;;;;;;15.77;37.41;99450.88;4946755;28;20482;-93
2024/03/10 10:51:36;;;;;;;4.78;3.35;;;;;;;15.99;37.34;99461.06;4928947;28;20034;-92
2024/03/10 10:54:09;;;;;;;5.18;3.60;;;;;;;16.02;37.09;99429.78;4944908;28;20030;-93
2024/03/10 10:56:34;;;;;;;5.03;3.25;;;;;;;16.03;37.01;99429.47;4930927;28;20119;-92
2024/03/10 10:59:01;;;;;;;5.95;3.33;;;;;;;16.26;37.31;99446.66;4944456;28;20038;-93
2024/03/10 11:01:26;;;;;;;4.38;3.28;;;;;;;16.09;37.42;99422.84;4930178;28;20030;-93
2024/03/10 11:03:54;;;;;;;5.15;3.50;;;;;;;16.16;37.59;99422.41;4929510;28;20478;-92
2024/03/10 11:06:19;;;;;;;5.50;3.30;;;;;;;16.29;37.71;99440.63;4945850;28;20417;-92
2024/03/10 11:08:46;;;;;;;4.80;3.20;;;;;;;16.12;37.59;99424.13;4961212;28;20050;-92
2024/03/10 11:11:14;;;;;;;6.18;3.63;;;;;;;15.96;37.34;99429.09;4945849;28;20062;-93
2024/03/10 11:13:43;;;;;;;4.55;3.35;;;;;;;16.12;37.18;99441.25;4960156;28;20034;-93
2024/03/10 11:16:12;;;;;;;6.65;3.13;;;;;;;16.06;37.16;99430.78;4964745;28;20053;-94
2024/03/10 11:18:44;;;;;;;5.10;3.13;;;;;;;15.82;38.15;99420.94;4979201;28;20445;-92
2024/03/10 11:21:14;;;;;;;4.57;3.33;;;;;;;15.89;38.02;99417.81;4962750;28;20125;-92
2024/03/10 11:23:40;;;;;;;4.57;3.00;;;;;;;15.87;38.34;99430.88;4949311;28;20038;-93
2024/03/10 11:26:07;;;;;;;8.05;3.85;;;;;;;15.64;38.46;99402.81;4950975;28;20030;-93
2024/03/10 11:28:49;;;;;;;6.10;3.25;;;;;;;15.75;38.77;99399.63;4948684;28;20034;-91
2024/03/10 11:31:18;;;;;;;;;;;;;;;15.89;38.99;99410.47;4965288;28;20034;-93
2024/03/10 11:33:46;;;;;;;5.95;3.90;;;;;;;15.86;38.73;99383.13;4965228;28;19916;-94
2024/03/10 11:36:11;;;;;;;6.05;3.50;;;;;;;15.92;38.65;99390.88;4948335;28;20034;-92
2024/03/10 11:38:37;;;;;;;5.32;3.53;;;;;;;16.03;38.94;99406.94;4948504;28;20033;-93
2024/03/10 11:41:07;;;;;;;5.90;3.78;;;;;;;15.96;38.44;99383.72;4978584;28;20563;-92
2024/03/10 11:43:43;;;;;;;8.27;3.97;;;;;;;15.92;38.98;99382.72;4980814;28;20026;-93
2024/03/10 11:46:29;;;;;;;6.70;4.05;;;;;;;15.95;38.94;99384.81;4979522;28;20022;-93
2024/03/10 11:48:55;;;;;;;5.32;3.75;;;;;;;15.93;38.80;99361.78;4979535;28;20027;-93
2024/03/10 11:51:28;;;;;;;9.73;4.10;;;;;;;15.91;39.02;99378.38;4948291;28;20049;-93
2024/03/10 11:53:57;;;;;;;5.20;3.53;;;;;;;15.85;38.78;99376.09;4966957;28;20031;-96